createdAt,value
2023-01-09T00:00:34.550Z,26.87
2023-01-09T00:01:34.457Z,26.78
2023-01-09T00:02:34.488Z,26.82
2023-01-09T00:03:34.471Z,26.81
2023-01-09T00:04:34.401Z,26.84
2023-01-09T00:05:34.385Z,26.81
2023-01-09T00:06:34.390Z,26.84
2023-01-09T00:07:34.350Z,26.85
2023-01-09T00:08:34.337Z,26.79
2023-01-09T00:09:34.329Z,26.84
2023-01-09T00:10:34.318Z,26.84
2023-01-09T00:11:34.306Z,26.81
2023-01-09T00:12:34.313Z,26.81
2023-01-09T00:13:34.281Z,26.79
2023-01-09T00:14:34.260Z,26.87
2023-01-09T00:15:34.245Z,26.88
2023-01-09T00:16:34.273Z,26.85
2023-01-09T00:17:34.216Z,26.79
2023-01-09T00:18:34.199Z,26.85
2023-01-09T00:19:34.200Z,26.84
2023-01-09T00:20:34.175Z,26.85
2023-01-09T00:21:34.172Z,26.84
2023-01-09T00:22:34.173Z,26.85
2023-01-09T00:23:34.130Z,26.85
2023-01-09T00:24:34.123Z,26.88
2023-01-09T00:25:34.151Z,26.89
2023-01-09T00:26:34.094Z,26.87
2023-01-09T00:27:34.097Z,26.88
2023-01-09T00:28:34.072Z,26.85
2023-01-09T00:29:34.027Z,26.88
2023-01-09T00:30:34.068Z,26.88
2023-01-09T00:31:34.023Z,26.89
2023-01-09T00:32:33.994Z,26.88
2023-01-09T00:33:33.981Z,26.87
2023-01-09T00:34:34.033Z,26.91
2023-01-09T00:35:33.951Z,26.90
2023-01-09T00:36:33.951Z,26.90
2023-01-09T00:37:33.908Z,26.90
2023-01-09T00:38:33.931Z,26.90
2023-01-09T00:39:33.879Z,26.87
2023-01-09T00:40:33.883Z,26.87
2023-01-09T00:41:33.867Z,26.88
2023-01-09T00:42:33.836Z,26.84
2023-01-09T00:43:33.844Z,26.87
2023-01-09T00:44:33.808Z,26.87
2023-01-09T00:45:33.783Z,26.92
2023-01-09T00:46:33.778Z,26.91
2023-01-09T00:47:34.434Z,26.85
2023-01-09T00:48:33.722Z,26.87
2023-01-09T00:49:33.710Z,26.89
2023-01-09T00:50:33.698Z,26.91
2023-01-09T00:51:33.687Z,26.92
2023-01-09T00:52:33.654Z,26.85
2023-01-09T00:53:33.652Z,26.90
2023-01-09T00:54:33.649Z,26.91
2023-01-09T00:55:33.636Z,26.92
2023-01-09T00:56:34.434Z,26.88
2023-01-09T00:57:33.627Z,26.89
2023-01-09T00:58:33.586Z,26.89
2023-01-09T00:59:33.564Z,26.92
2023-01-09T01:00:33.574Z,26.92
2023-01-09T01:01:33.633Z,26.90
2023-01-09T01:02:33.530Z,26.89
2023-01-09T01:03:33.533Z,26.92
2023-01-09T01:04:33.485Z,26.92
2023-01-09T01:05:33.476Z,26.92
2023-01-09T01:06:33.462Z,26.89
2023-01-09T01:07:33.438Z,26.96
2023-01-09T01:08:33.410Z,26.92
2023-01-09T01:09:33.397Z,26.89
2023-01-09T01:10:33.383Z,26.94
2023-01-09T01:11:33.392Z,26.88
2023-01-09T01:12:33.358Z,26.95
2023-01-09T01:13:33.344Z,26.90
2023-01-09T01:14:33.304Z,26.85
2023-01-09T01:15:33.312Z,26.88
2023-01-09T01:16:33.339Z,26.88
2023-01-09T01:17:33.228Z,26.90
2023-01-09T01:18:33.224Z,26.92
2023-01-09T01:19:33.233Z,26.91
2023-01-09T01:20:33.186Z,26.94
2023-01-09T01:21:33.163Z,26.87
2023-01-09T01:22:33.152Z,26.90
2023-01-09T01:23:33.126Z,26.92
2023-01-09T01:24:33.126Z,26.95
2023-01-09T01:25:33.075Z,26.90
2023-01-09T01:26:33.052Z,26.91
2023-01-09T01:27:33.032Z,26.94
2023-01-09T01:28:33.012Z,26.92
2023-01-09T01:29:33.027Z,26.90
2023-01-09T01:30:33.008Z,26.89
2023-01-09T01:31:32.935Z,26.89
2023-01-09T01:47:32.962Z,26.92
2023-01-09T05:41:28.959Z,27.05
2023-01-09T06:00:28.642Z,27.06
2023-01-09T06:01:28.678Z,27.06
2023-01-09T06:02:28.734Z,27.09
2023-01-09T06:03:28.592Z,27.04
2023-01-09T06:04:28.562Z,27.07
2023-01-09T06:05:28.552Z,27.06
2023-01-09T06:06:28.522Z,27.06
2023-01-09T06:07:28.509Z,27.07
2023-01-09T06:08:28.479Z,27.10
2023-01-09T06:09:28.471Z,27.13
2023-01-09T06:10:28.436Z,27.13
2023-01-09T06:11:28.443Z,27.06
2023-01-09T06:12:28.413Z,27.09
2023-01-09T06:13:28.423Z,27.07
2023-01-09T06:14:28.385Z,27.03
2023-01-09T06:15:28.372Z,27.13
2023-01-09T06:16:28.362Z,27.10
2023-01-09T06:17:28.337Z,27.07
2023-01-09T06:18:28.310Z,27.12
2023-01-09T06:19:28.283Z,27.04
2023-01-09T06:20:28.284Z,27.10
2023-01-09T06:21:28.256Z,27.06
2023-01-09T06:22:28.249Z,27.07
2023-01-09T06:23:28.209Z,27.07
2023-01-09T06:24:28.190Z,27.13
2023-01-09T06:25:28.189Z,27.23
2023-01-09T06:26:28.166Z,27.26
2023-01-09T06:27:28.157Z,27.17
2023-01-09T06:28:28.133Z,26.55
2023-01-09T06:29:28.086Z,26.57
2023-01-09T06:30:28.089Z,26.90
2023-01-09T06:31:28.111Z,27.21
2023-01-09T06:32:28.057Z,27.39
2023-01-09T06:33:28.040Z,27.87
2023-01-09T06:34:28.009Z,28.42
2023-01-09T06:35:28.008Z,28.82
2023-01-09T06:36:27.973Z,29.12
2023-01-09T06:37:27.976Z,29.09
2023-01-09T06:38:27.935Z,29.17
2023-01-09T06:39:27.907Z,29.28
2023-01-09T06:40:27.899Z,30.36
2023-01-09T06:41:27.902Z,29.51
2023-01-09T06:42:27.883Z,29.56
2023-01-09T06:43:27.851Z,29.34
2023-01-09T06:44:27.845Z,29.14
2023-01-09T06:45:27.822Z,28.74
2023-01-09T06:46:27.845Z,29.10
2023-01-09T06:47:27.783Z,28.85
2023-01-09T06:48:27.804Z,29.10
2023-01-09T06:49:27.762Z,29.06
2023-01-09T06:50:27.742Z,29.39
2023-01-09T06:51:27.750Z,29.47
2023-01-09T06:52:27.716Z,29.80
2023-01-09T06:53:27.831Z,30.22
2023-01-09T06:54:28.766Z,30.35
2023-01-09T06:55:27.665Z,30.25
2023-01-09T06:56:27.634Z,30.52
2023-01-09T06:57:27.616Z,30.79
2023-01-09T06:58:27.598Z,30.94
2023-01-09T06:59:27.606Z,30.96
2023-01-09T07:00:27.583Z,31.13
2023-01-09T07:01:27.632Z,31.29
2023-01-09T07:02:27.559Z,31.46
2023-01-09T07:03:27.508Z,31.49
2023-01-09T07:04:27.551Z,31.38
2023-01-09T07:05:27.455Z,31.57
2023-01-09T07:06:27.438Z,31.74
2023-01-09T07:07:27.410Z,31.78
2023-01-09T07:08:27.420Z,31.83
2023-01-09T07:09:27.377Z,31.90
2023-01-09T07:10:27.369Z,32.13
2023-01-09T07:11:27.352Z,31.88
2023-01-09T07:12:27.337Z,31.88
2023-01-09T07:13:27.400Z,31.61
2023-01-09T07:14:27.292Z,31.65
2023-01-09T07:15:27.325Z,31.56
2023-01-09T07:16:27.248Z,31.29
2023-01-09T07:17:27.237Z,31.29
2023-01-09T07:18:27.239Z,31.18
2023-01-09T07:19:27.234Z,31.15
2023-01-09T07:20:27.169Z,30.91
2023-01-09T07:21:27.183Z,30.94
2023-01-09T07:22:27.133Z,30.90
2023-01-09T07:23:27.124Z,30.73
2023-01-09T07:24:27.100Z,30.60
2023-01-09T07:25:27.071Z,30.42
2023-01-09T07:26:27.110Z,30.26
2023-01-09T07:27:27.048Z,30.17
2023-01-09T07:28:27.027Z,30.14
2023-01-09T07:29:27.016Z,30.08
2023-01-09T07:30:27.010Z,30.08
2023-01-09T07:31:27.120Z,29.93
2023-01-09T07:32:26.976Z,29.89
2023-01-09T07:33:26.932Z,29.82
2023-01-09T07:34:26.977Z,29.81
2023-01-09T07:35:26.911Z,29.74
2023-01-09T07:36:26.877Z,29.64
2023-01-09T07:37:26.883Z,29.51
2023-01-09T07:38:26.852Z,29.50
2023-01-09T07:39:26.889Z,29.41
2023-01-09T07:40:26.830Z,29.47
2023-01-09T07:41:26.795Z,29.41
2023-01-09T07:42:26.817Z,29.37
2023-01-09T07:43:26.751Z,29.28
2023-01-09T07:44:26.745Z,29.26
2023-01-09T07:45:26.754Z,29.30
2023-01-09T07:46:26.725Z,29.42
2023-01-09T07:47:26.668Z,29.42
2023-01-09T07:48:26.745Z,29.42
2023-01-09T07:49:26.989Z,29.44
2023-01-09T07:50:26.627Z,29.44
2023-01-09T07:51:26.595Z,29.35
2023-01-09T07:52:26.591Z,29.28
2023-01-09T07:53:26.578Z,29.19
2023-01-09T07:54:26.572Z,29.16
2023-01-09T07:55:26.533Z,29.08
2023-01-09T07:56:26.514Z,29.04
2023-01-09T07:57:26.500Z,28.94
2023-01-09T07:58:26.515Z,29.00
2023-01-09T07:59:26.473Z,28.94
2023-01-09T08:00:26.458Z,28.88
2023-01-09T08:01:26.613Z,28.82
2023-01-09T08:02:26.441Z,28.77
2023-01-09T08:03:26.382Z,28.67
2023-01-09T08:04:26.386Z,28.72
2023-01-09T08:05:26.347Z,28.71
2023-01-09T08:06:26.320Z,28.64
2023-01-09T08:07:26.315Z,28.72
2023-01-09T08:08:26.284Z,28.64
2023-01-09T08:09:26.265Z,28.54
2023-01-09T08:10:26.317Z,28.58
2023-01-09T08:11:26.300Z,28.40
2023-01-09T08:12:26.210Z,28.51
2023-01-09T08:13:26.205Z,28.60
2023-01-09T08:14:26.167Z,28.68
2023-01-09T08:15:26.139Z,28.57
2023-01-09T08:16:26.134Z,28.60
2023-01-09T08:17:26.647Z,28.63
2023-01-09T08:18:26.086Z,28.68
2023-01-09T08:19:26.059Z,28.66
2023-01-09T08:20:26.039Z,28.68
2023-01-09T08:21:26.041Z,28.57
2023-01-09T08:22:26.049Z,28.57
2023-01-09T08:23:25.990Z,28.49
2023-01-09T08:24:25.978Z,28.45
2023-01-09T08:25:25.993Z,28.37
2023-01-09T08:26:25.951Z,28.44
2023-01-09T08:27:25.936Z,28.42
2023-01-09T08:28:25.921Z,28.39
2023-01-09T08:29:25.874Z,28.49
2023-01-09T08:30:25.888Z,28.36
2023-01-09T08:31:25.890Z,28.36
2023-01-09T08:32:25.822Z,28.41
2023-01-09T08:33:25.830Z,28.44
2023-01-09T08:34:25.782Z,28.43
2023-01-09T08:35:25.799Z,28.45
2023-01-09T08:36:25.847Z,28.57
2023-01-09T08:37:25.729Z,29.42
2023-01-09T08:38:25.699Z,28.72
2023-01-09T08:39:25.674Z,28.66
2023-01-09T08:40:25.726Z,28.98
2023-01-09T08:41:25.626Z,31.26
2023-01-09T08:42:25.629Z,29.07
2023-01-09T08:43:25.590Z,28.72
2023-01-09T08:44:25.563Z,28.47
2023-01-09T08:45:25.749Z,57.05
2023-01-09T08:46:25.567Z,33.16
2023-01-09T08:47:25.540Z,29.58
2023-01-09T08:48:25.533Z,28.87
2023-01-09T08:49:25.538Z,25.98
2023-01-09T08:50:25.672Z,25.58
2023-01-09T08:51:25.485Z,24.91
2023-01-09T08:52:25.477Z,24.24
2023-01-09T08:53:25.468Z,24.48
2023-01-09T08:54:25.452Z,24.71
2023-01-09T08:55:25.457Z,25.47
2023-01-09T08:56:25.447Z,24.74
2023-01-09T08:57:25.445Z,25.20
2023-01-09T08:58:25.426Z,24.94
2023-01-09T08:59:25.436Z,24.96
2023-01-09T09:00:25.764Z,25.04
2023-01-09T09:01:25.445Z,24.61
2023-01-09T09:02:25.452Z,24.51
2023-01-09T09:03:25.427Z,24.62
2023-01-09T09:04:25.415Z,25.11
2023-01-09T09:05:25.504Z,25.21
2023-01-09T09:06:25.401Z,25.34
2023-01-09T09:07:25.403Z,25.82
2023-01-09T09:08:25.422Z,26.27
2023-01-09T09:09:25.409Z,26.57
2023-01-09T09:10:25.451Z,26.71
2023-01-09T09:11:25.476Z,26.79
2023-01-09T09:12:25.435Z,26.94
2023-01-09T09:13:25.405Z,27.27
2023-01-09T09:14:25.762Z,27.51
2023-01-09T09:15:25.421Z,27.62
2023-01-09T09:16:25.511Z,27.75
2023-01-09T09:17:25.371Z,28.05
2023-01-09T09:18:25.395Z,28.20
2023-01-09T09:19:25.355Z,28.31
2023-01-09T09:20:26.153Z,28.43
2023-01-09T09:21:25.333Z,28.50
2023-01-09T09:22:25.320Z,28.55
2023-01-09T09:23:25.305Z,28.68
2023-01-09T09:24:25.306Z,28.67
2023-01-09T09:25:25.375Z,28.99
2023-01-09T09:26:25.461Z,29.08
2023-01-09T09:27:25.265Z,29.28
2023-01-09T09:28:25.258Z,29.49
2023-01-09T09:29:25.247Z,29.58
2023-01-09T09:30:25.230Z,29.75
2023-01-09T09:31:25.309Z,29.82
2023-01-09T09:32:25.193Z,29.63
2023-01-09T09:33:25.197Z,29.85
2023-01-09T09:34:25.170Z,29.71
2023-01-09T09:35:25.185Z,29.75
2023-01-09T09:36:25.148Z,29.92
2023-01-09T09:37:25.124Z,29.71
2023-01-09T09:38:25.089Z,29.61
2023-01-09T09:39:25.073Z,30.69
2023-01-09T09:40:25.668Z,29.55
2023-01-09T09:41:25.045Z,30.28
2023-01-09T09:42:25.450Z,29.62
2023-01-09T09:43:25.016Z,29.01
2023-01-09T09:44:25.081Z,28.81
2023-01-09T09:46:25.405Z,28.76
2023-01-09T09:47:24.945Z,28.91
2023-01-09T09:48:24.941Z,29.05
2023-01-09T09:49:24.955Z,29.25
2023-01-09T09:50:24.927Z,29.51
2023-01-09T09:51:24.891Z,29.31
2023-01-09T09:52:24.889Z,29.18
2023-01-09T09:53:24.859Z,29.27
2023-01-09T09:54:24.896Z,29.13
2023-01-09T09:55:24.819Z,29.14
2023-01-09T09:56:24.794Z,29.45
2023-01-09T09:57:24.768Z,29.26
2023-01-09T09:58:24.743Z,29.20
2023-01-09T09:59:26.843Z,29.22
2023-01-09T10:00:24.722Z,29.23
2023-01-09T10:01:24.691Z,29.20
2023-01-09T10:02:24.692Z,29.22
2023-01-09T10:03:33.376Z,29.17
2023-01-09T10:04:25.620Z,29.08
2023-01-09T10:05:24.639Z,29.01
2023-01-09T10:06:24.579Z,29.09
2023-01-09T10:07:24.584Z,29.01
2023-01-09T10:08:24.584Z,29.06
2023-01-09T10:09:24.553Z,28.96
2023-01-09T10:10:24.540Z,28.95
2023-01-09T10:11:24.557Z,28.89
2023-01-09T10:12:24.488Z,28.96
2023-01-09T10:13:24.501Z,28.91
2023-01-09T10:14:24.858Z,28.85
2023-01-09T10:15:24.439Z,28.88
2023-01-09T10:16:24.622Z,28.85
2023-01-09T10:17:24.418Z,28.75
2023-01-09T10:18:24.393Z,28.71
2023-01-09T10:19:24.359Z,28.69
2023-01-09T10:20:24.362Z,28.64
2023-01-09T10:21:24.347Z,28.61
2023-01-09T10:22:25.190Z,28.61
2023-01-09T10:23:24.317Z,28.51
2023-01-09T10:24:24.304Z,28.48
2023-01-09T10:25:24.259Z,28.57
2023-01-09T10:26:24.245Z,28.52
2023-01-09T10:27:24.240Z,28.52
2023-01-09T10:28:24.200Z,28.51
2023-01-09T10:29:24.182Z,28.51
2023-01-09T10:30:24.173Z,28.55
2023-01-09T10:31:24.173Z,28.44
2023-01-09T10:32:24.136Z,28.53
2023-01-09T10:33:24.109Z,28.50
2023-01-09T10:34:24.118Z,28.47
2023-01-09T10:35:24.083Z,28.57
2023-01-09T10:36:24.072Z,28.53
2023-01-09T10:37:24.056Z,28.50
2023-01-09T10:38:24.057Z,28.58
2023-01-09T10:39:24.055Z,28.97
2023-01-09T10:40:24.056Z,29.35
2023-01-09T10:41:24.004Z,29.30
2023-01-09T10:42:23.993Z,34.74
2023-01-09T10:43:23.960Z,29.73
2023-01-09T10:44:23.947Z,28.99
2023-01-09T10:45:23.919Z,28.48
2023-01-09T10:46:23.945Z,28.41
2023-01-09T10:47:23.903Z,28.56
2023-01-09T10:48:23.857Z,28.40
2023-01-09T10:49:23.849Z,28.36
2023-01-09T10:50:23.837Z,28.29
2023-01-09T10:51:23.825Z,28.36
2023-01-09T10:52:23.792Z,28.29
2023-01-09T10:53:23.767Z,28.25
2023-01-09T10:54:23.760Z,28.29
2023-01-09T10:55:23.720Z,28.34
2023-01-09T10:56:23.705Z,28.31
2023-01-09T10:57:23.674Z,28.26
2023-01-09T10:58:23.649Z,28.30
2023-01-09T10:59:23.654Z,28.32
2023-01-09T11:00:24.000Z,28.25
2023-01-09T11:01:23.599Z,28.25
2023-01-09T11:02:23.630Z,28.22
2023-01-09T11:03:23.629Z,28.20
2023-01-09T11:04:23.546Z,28.25
2023-01-09T11:05:23.550Z,28.23
2023-01-09T11:06:23.536Z,28.18
2023-01-09T11:07:23.504Z,28.20
2023-01-09T11:08:23.467Z,28.18
2023-01-09T11:09:23.453Z,28.07
2023-01-09T11:10:23.435Z,28.15
2023-01-09T11:11:23.422Z,28.15
2023-01-09T11:12:23.460Z,28.08
2023-01-09T11:13:23.375Z,28.02
2023-01-09T11:14:23.344Z,28.04
2023-01-09T11:15:23.326Z,28.03
2023-01-09T11:16:23.393Z,27.91
2023-01-09T11:17:23.297Z,28.04
2023-01-09T11:18:23.276Z,27.93
2023-01-09T11:19:23.242Z,27.94
2023-01-09T11:20:23.265Z,28.15
2023-01-09T11:21:23.203Z,28.14
2023-01-09T11:22:23.162Z,28.35
2023-01-09T11:23:23.166Z,28.09
2023-01-09T11:24:23.143Z,28.21
2023-01-09T11:25:23.099Z,28.07
2023-01-09T11:26:23.079Z,28.01
2023-01-09T11:27:23.059Z,27.88
2023-01-09T11:28:23.055Z,27.76
2023-01-09T11:29:23.023Z,27.64
2023-01-09T11:30:23.232Z,27.61
2023-01-09T11:31:23.057Z,27.70
2023-01-09T11:32:22.961Z,27.98
2023-01-09T11:33:23.219Z,28.43
2023-01-09T11:34:22.896Z,28.62
2023-01-09T11:35:22.911Z,28.69
2023-01-09T11:36:22.859Z,28.62
2023-01-09T11:37:23.702Z,28.52
2023-01-09T11:38:22.813Z,28.55
2023-01-09T11:39:22.794Z,28.39
2023-01-09T11:40:22.789Z,29.16
2023-01-09T11:41:22.802Z,29.81
2023-01-09T11:42:22.762Z,29.40
2023-01-09T11:43:22.719Z,29.19
2023-01-09T11:44:22.784Z,29.05
2023-01-09T11:45:22.665Z,28.98
2023-01-09T11:46:22.771Z,28.90
2023-01-09T11:47:22.644Z,28.78
2023-01-09T11:48:22.594Z,28.73
2023-01-09T11:49:22.555Z,28.70
2023-01-09T11:50:22.528Z,28.67
2023-01-09T11:51:22.534Z,28.81
2023-01-09T11:52:22.515Z,28.77
2023-01-09T11:53:22.523Z,28.60
2023-01-09T11:54:22.472Z,28.64
2023-01-09T11:55:25.373Z,28.66
2023-01-09T11:56:22.429Z,28.72
2023-01-09T11:57:22.379Z,28.63
2023-01-09T11:58:22.368Z,28.70
2023-01-09T11:59:22.348Z,28.67
2023-01-09T12:00:22.305Z,28.60
2023-01-09T12:01:22.292Z,28.67
2023-01-09T12:02:22.316Z,28.59
2023-01-09T12:03:22.272Z,28.60
2023-01-09T12:04:22.192Z,28.84
2023-01-09T12:05:22.166Z,29.04
2023-01-09T12:06:22.151Z,29.28
2023-01-09T12:07:22.138Z,29.31
2023-01-09T12:08:22.112Z,29.20
2023-01-09T12:09:22.075Z,29.33
2023-01-09T12:10:22.061Z,29.28
2023-01-09T12:11:22.029Z,29.57
2023-01-09T12:12:22.021Z,29.69
2023-01-09T12:13:21.971Z,30.00
2023-01-09T12:14:22.007Z,29.75
2023-01-09T12:15:21.935Z,29.72
2023-01-09T12:16:22.051Z,29.72
2023-01-09T12:17:21.900Z,29.68
2023-01-09T12:18:21.877Z,29.50
2023-01-09T12:19:21.884Z,29.57
2023-01-09T12:20:21.820Z,29.45
2023-01-09T12:21:21.811Z,29.37
2023-01-09T12:22:21.780Z,29.48
2023-01-09T12:23:21.758Z,29.66
2023-01-09T12:24:21.771Z,29.53
2023-01-09T12:25:21.713Z,29.95
2023-01-09T12:26:21.721Z,29.05
2023-01-09T12:27:21.708Z,28.73
2023-01-09T12:28:21.655Z,28.52
2023-01-09T12:29:21.665Z,28.14
2023-01-09T12:30:21.612Z,28.08
2023-01-09T12:31:21.688Z,27.66
2023-01-09T12:32:21.562Z,27.29
2023-01-09T12:33:21.557Z,27.02
2023-01-09T12:34:21.560Z,26.73
2023-01-09T12:35:21.527Z,26.62
2023-01-09T12:36:21.492Z,26.62
2023-01-09T12:37:21.491Z,26.56
2023-01-09T12:38:21.455Z,26.46
2023-01-09T12:39:21.437Z,26.02
2023-01-09T12:40:21.427Z,26.07
2023-01-09T12:41:21.401Z,26.17
2023-01-09T12:42:21.414Z,26.07
2023-01-09T12:43:21.380Z,26.09
2023-01-09T12:44:34.321Z,26.00
2023-01-09T12:45:22.392Z,25.99
2023-01-09T12:46:21.379Z,25.76
2023-01-09T12:47:21.304Z,25.62
2023-01-09T12:48:21.301Z,25.62
2023-01-09T12:49:21.294Z,25.56
2023-01-09T12:50:21.276Z,25.54
2023-01-09T12:51:21.275Z,25.51
2023-01-09T12:52:21.262Z,25.65
2023-01-09T12:53:21.260Z,25.99
2023-01-09T12:54:21.236Z,26.55
2023-01-09T12:55:21.214Z,26.86
2023-01-09T12:56:21.187Z,27.52
2023-01-09T12:57:21.201Z,27.53
2023-01-09T12:58:21.170Z,27.61
2023-01-09T12:59:21.181Z,27.59
2023-01-09T13:00:21.136Z,27.65
2023-01-09T13:01:21.162Z,27.65
2023-01-09T13:02:21.147Z,27.64
2023-01-09T13:03:21.118Z,27.85
2023-01-09T13:04:21.064Z,27.91
2023-01-09T13:05:21.049Z,27.91
2023-01-09T13:06:21.035Z,27.75
2023-01-09T13:07:21.016Z,27.82
2023-01-09T13:08:21.002Z,27.77
2023-01-09T13:09:20.972Z,28.29
2023-01-09T13:10:20.976Z,30.99
2023-01-09T13:11:21.300Z,29.21
2023-01-09T13:12:20.911Z,29.74
2023-01-09T13:13:20.892Z,30.36
2023-01-09T13:14:20.899Z,31.46
2023-01-09T13:15:20.867Z,32.19
2023-01-09T13:16:20.902Z,32.01
2023-01-09T13:17:20.817Z,31.88
2023-01-09T13:18:20.822Z,31.60
2023-01-09T13:19:20.789Z,31.43
2023-01-09T13:20:20.774Z,31.36
2023-01-09T13:21:20.761Z,31.15
2023-01-09T13:22:20.720Z,31.06
2023-01-09T13:23:20.689Z,30.98
2023-01-09T13:24:20.692Z,30.85
2023-01-09T13:25:20.696Z,30.70
2023-01-09T13:26:20.642Z,30.64
2023-01-09T13:27:20.609Z,30.52
2023-01-09T13:28:20.589Z,30.47
2023-01-09T13:29:20.579Z,30.36
2023-01-09T13:30:20.570Z,30.24
2023-01-09T13:31:20.554Z,30.10
2023-01-09T13:32:20.500Z,30.23
2023-01-09T13:33:20.488Z,30.15
2023-01-09T13:34:22.378Z,30.34
2023-01-09T13:35:20.474Z,30.34
2023-01-09T13:36:20.445Z,30.66
2023-01-09T13:37:20.407Z,30.65
2023-01-09T13:38:20.391Z,30.53
2023-01-09T13:39:20.372Z,30.46
2023-01-09T13:40:20.394Z,30.60
2023-01-09T13:41:20.326Z,30.62
2023-01-09T13:42:20.306Z,30.66
2023-01-09T13:43:20.291Z,30.75
2023-01-09T13:44:20.284Z,30.79
2023-01-09T13:45:20.213Z,30.73
2023-01-09T13:46:20.185Z,30.75
2023-01-09T13:47:20.158Z,30.71
2023-01-09T13:48:20.259Z,30.69
2023-01-09T13:49:20.127Z,30.67
2023-01-09T13:50:20.101Z,30.61
2023-01-09T13:51:20.049Z,30.56
2023-01-09T13:52:20.042Z,30.47
2023-01-09T13:53:20.083Z,30.50
2023-01-09T13:54:19.996Z,30.45
2023-01-09T13:55:19.958Z,30.60
2023-01-09T13:56:22.788Z,30.41
2023-01-09T13:57:19.937Z,30.34
2023-01-09T13:58:19.889Z,30.54
2023-01-09T13:59:19.862Z,30.26
2023-01-09T14:00:19.844Z,30.26
2023-01-09T14:01:19.859Z,30.18
2023-01-09T14:02:19.845Z,30.12
2023-01-09T14:03:19.764Z,29.98
2023-01-09T14:04:19.749Z,29.88
2023-01-09T14:05:19.709Z,29.73
2023-01-09T14:06:19.716Z,29.68
2023-01-09T14:07:19.675Z,29.73
2023-01-09T14:08:19.652Z,29.68
2023-01-09T14:09:19.629Z,29.81
2023-01-09T14:10:19.590Z,29.70
2023-01-09T14:11:19.576Z,29.66
2023-01-09T14:12:19.563Z,29.62
2023-01-09T14:13:19.519Z,29.40
2023-01-09T14:14:19.495Z,29.21
2023-01-09T14:15:19.472Z,29.18
2023-01-09T14:16:19.507Z,29.11
2023-01-09T14:17:19.429Z,29.08
2023-01-09T14:18:19.396Z,29.15
2023-01-09T14:19:19.376Z,29.17
2023-01-09T14:20:19.353Z,29.10
2023-01-09T14:21:19.323Z,29.08
2023-01-09T14:23:35.273Z,29.02
2023-01-09T14:25:19.230Z,28.97
2023-01-09T14:26:19.202Z,28.97
2023-01-09T14:27:19.173Z,29.17
2023-01-09T14:28:19.154Z,29.00
2023-01-09T14:29:19.117Z,28.91
2023-01-09T14:30:19.093Z,28.84
2023-01-09T14:31:19.164Z,28.81
2023-01-09T14:32:19.036Z,28.80
2023-01-09T14:33:19.007Z,28.79
2023-01-09T14:34:30.255Z,28.91
2023-01-09T14:36:18.963Z,28.84
2023-01-09T14:37:18.930Z,28.60
2023-01-09T14:38:18.904Z,28.63
2023-01-09T14:39:18.882Z,28.73
2023-01-09T14:40:18.875Z,28.77
2023-01-09T14:41:18.848Z,28.63
2023-01-09T14:42:18.809Z,28.52
2023-01-09T14:43:18.791Z,28.36
2023-01-09T14:44:18.763Z,28.63
2023-01-09T14:45:18.743Z,28.59
2023-01-09T14:46:18.804Z,28.48
2023-01-09T14:47:18.715Z,28.36
2023-01-09T14:48:18.685Z,28.53
2023-01-09T14:49:18.658Z,28.56
2023-01-09T14:50:18.651Z,28.48
2023-01-09T14:51:18.649Z,28.32
2023-01-09T14:52:18.604Z,28.41
2023-01-09T14:53:18.585Z,28.44
2023-01-09T14:54:18.562Z,28.48
2023-01-09T14:55:18.535Z,28.48
2023-01-09T14:56:18.495Z,28.35
2023-01-09T14:57:18.467Z,28.30
2023-01-09T14:58:18.466Z,28.23
2023-01-09T14:59:18.433Z,28.34
2023-01-09T15:00:18.394Z,28.38
2023-01-09T15:01:18.440Z,28.30
2023-01-09T15:02:18.515Z,28.37
2023-01-09T15:03:18.348Z,28.28
2023-01-09T15:04:18.297Z,28.34
2023-01-09T15:05:18.271Z,28.32
2023-01-09T15:06:18.239Z,28.28
2023-01-09T15:07:18.232Z,28.25
2023-01-09T15:08:18.208Z,28.18
2023-01-09T15:09:18.172Z,28.12
2023-01-09T15:10:18.159Z,28.24
2023-01-09T15:11:18.144Z,28.28
2023-01-09T15:12:18.135Z,28.34
2023-01-09T15:13:18.102Z,28.24
2023-01-09T15:14:18.086Z,28.44
2023-01-09T15:15:18.045Z,28.62
2023-01-09T15:16:18.034Z,28.87
2023-01-09T15:17:18.026Z,28.45
2023-01-09T15:18:17.988Z,28.15
2023-01-09T15:19:17.966Z,28.09
2023-01-09T15:20:17.950Z,27.95
2023-01-09T15:21:17.913Z,27.86
2023-01-09T15:22:17.901Z,27.85
2023-01-09T15:23:17.887Z,27.61
2023-01-09T15:24:17.856Z,27.61
2023-01-09T15:25:19.313Z,27.56
2023-01-09T15:26:17.804Z,27.47
2023-01-09T15:27:17.786Z,27.37
2023-01-09T15:28:17.761Z,27.32
2023-01-09T15:29:17.753Z,27.32
2023-01-09T15:30:17.727Z,27.25
2023-01-09T15:31:17.745Z,27.22
2023-01-09T15:32:17.710Z,27.19
2023-01-09T15:33:17.658Z,27.12
2023-01-09T15:34:17.646Z,27.06
2023-01-09T15:35:17.633Z,26.96
2023-01-09T15:36:17.624Z,26.92
2023-01-09T16:23:16.736Z,26.84
2023-01-09T16:24:16.711Z,26.86
2023-01-09T16:25:16.694Z,26.89
2023-01-09T16:26:16.698Z,26.91
2023-01-09T16:27:16.663Z,26.93
2023-01-09T16:29:16.650Z,26.95
2023-01-09T16:30:16.639Z,26.93
2023-01-09T16:31:16.610Z,26.99
2023-01-09T16:32:16.604Z,26.97
2023-01-09T16:33:16.597Z,26.98
2023-01-09T16:34:16.576Z,26.95
2023-01-09T16:35:16.554Z,27.01
2023-01-09T16:36:16.563Z,27.10
2023-01-09T16:37:16.597Z,27.05
2023-01-09T16:38:16.511Z,27.04
2023-01-09T16:39:17.322Z,27.04
2023-01-09T16:40:16.476Z,27.07
2023-01-09T16:41:16.452Z,27.11
2023-01-09T16:42:16.440Z,27.11
2023-01-09T16:43:16.414Z,27.12
2023-01-09T16:44:16.392Z,27.15
2023-01-09T16:45:16.375Z,27.16
2023-01-09T16:46:16.419Z,27.16
2023-01-09T16:47:16.338Z,27.20
2023-01-09T16:48:16.319Z,27.20
2023-01-09T16:49:16.340Z,27.20
2023-01-09T16:50:16.303Z,27.18
2023-01-09T16:51:16.310Z,27.25
2023-01-09T16:52:16.297Z,27.25
2023-01-09T16:53:16.259Z,27.25
2023-01-09T16:54:16.256Z,27.25
2023-01-09T16:55:16.234Z,27.28
2023-01-09T16:56:16.201Z,27.27
2023-01-09T16:57:16.192Z,27.28
2023-01-09T16:58:18.468Z,27.36
2023-01-09T16:59:16.242Z,27.34
2023-01-09T17:00:16.233Z,27.33
2023-01-09T17:01:16.246Z,27.30
2023-01-09T17:02:16.261Z,27.34
2023-01-09T17:03:16.195Z,27.31
2023-01-09T17:04:16.191Z,27.39
2023-01-09T17:05:16.162Z,27.36
2023-01-09T17:06:16.135Z,27.38
2023-01-09T17:07:16.149Z,27.40
2023-01-09T17:08:16.127Z,27.37
2023-01-09T17:09:16.083Z,27.39
2023-01-09T17:10:16.056Z,27.38
2023-01-09T17:11:16.047Z,27.39
2023-01-09T17:12:16.024Z,27.44
2023-01-09T17:13:16.013Z,27.39
2023-01-09T17:14:15.994Z,27.41
2023-01-09T17:15:15.979Z,27.48
2023-01-09T17:16:15.995Z,27.47
2023-01-09T17:17:15.951Z,27.45
2023-01-09T17:18:15.922Z,27.48
2023-01-09T17:19:15.932Z,27.50
2023-01-09T17:20:15.908Z,27.45
2023-01-09T17:21:15.908Z,27.48
2023-01-09T17:22:15.898Z,27.51
2023-01-09T17:23:15.877Z,27.48
2023-01-09T17:24:15.876Z,27.51
2023-01-09T17:25:15.802Z,27.52
2023-01-09T17:26:15.806Z,27.51
2023-01-09T17:27:15.765Z,27.52
2023-01-09T17:28:15.745Z,27.51
2023-01-09T17:29:15.754Z,27.52
2023-01-09T17:30:19.606Z,27.54
2023-01-09T17:31:15.803Z,27.58
2023-01-09T17:32:15.787Z,27.56
2023-01-09T17:33:15.661Z,27.58
2023-01-09T17:34:15.650Z,27.59
2023-01-09T17:35:15.641Z,27.58
2023-01-09T17:36:15.611Z,27.58
2023-01-09T17:37:15.720Z,27.60
2023-01-09T17:38:15.592Z,27.62
2023-01-09T17:39:15.564Z,27.59
2023-01-09T17:40:15.547Z,27.61
2023-01-09T17:41:15.533Z,27.66
2023-01-09T17:42:15.525Z,27.65
2023-01-09T17:43:15.521Z,27.59
2023-01-09T17:44:15.504Z,27.65
2023-01-09T17:45:15.469Z,27.66
2023-01-09T17:46:15.537Z,27.59
2023-01-09T17:47:15.460Z,27.68
2023-01-09T17:48:15.408Z,27.65
2023-01-09T17:49:15.376Z,27.68
2023-01-09T17:50:15.370Z,27.68
2023-01-09T17:51:15.375Z,27.63
2023-01-09T17:52:15.341Z,27.70
2023-01-09T17:53:15.329Z,27.70
2023-01-09T17:54:15.294Z,27.70
2023-01-09T17:55:15.327Z,27.67
2023-01-09T17:56:15.302Z,27.64
2023-01-09T17:57:15.296Z,27.70
2023-01-09T17:58:15.261Z,27.69
2023-01-09T17:59:15.289Z,27.75
2023-01-09T18:00:15.235Z,27.77
2023-01-09T18:01:15.348Z,27.75
2023-01-09T18:02:15.277Z,27.76
2023-01-09T18:03:15.192Z,27.74
2023-01-09T18:04:15.183Z,27.70
2023-01-09T18:05:15.177Z,27.80
2023-01-09T18:06:15.148Z,27.77
2023-01-09T18:07:15.149Z,27.79
2023-01-09T18:08:15.119Z,27.79
2023-01-09T18:09:15.121Z,27.76